sensor_id;sensor_type;location;lat;lon;timestamp;pressure;altitude;pressure_sealevel;temperature;humidity
42601;BME280;28229;48.856;9.088;2022-12-18T00:02:06;99042.06;;;-11.06;86.29
42601;BME280;28229;48.856;9.088;2022-12-18T00:04:31;99049.94;;;-11.14;85.56
42601;BME280;28229;48.856;9.088;2022-12-18T00:06:58;99053.25;;;-11.12;85.63
42601;BME280;28229;48.856;9.088;2022-12-18T00:09:23;99047.28;;;-11.11;86.70
42601;BME280;28229;48.856;9.088;2022-12-18T00:11:49;99049.53;;;-11.01;86.08
42601;BME280;28229;48.856;9.088;2022-12-18T00:14:15;99054.09;;;-11.11;85.92
42601;BME280;28229;48.856;9.088;2022-12-18T00:16:43;99056.00;;;-11.18;86.24
42601;BME280;28229;48.856;9.088;2022-12-18T00:19:10;99049.38;;;-11.22;86.28
42601;BME280;28229;48.856;9.088;2022-12-18T00:21:36;99039.06;;;-11.17;85.83
42601;BME280;28229;48.856;9.088;2022-12-18T00:24:08;99043.19;;;-11.15;85.61
42601;BME280;28229;48.856;9.088;2022-12-18T00:26:36;99034.56;;;-11.11;85.66
42601;BME280;28229;48.856;9.088;2022-12-18T00:29:13;99042.34;;;-11.14;85.82
42601;BME280;28229;48.856;9.088;2022-12-18T00:31:42;99048.28;;;-11.15;85.72
42601;BME280;28229;48.856;9.088;2022-12-18T00:34:12;99056.56;;;-11.09;85.31
42601;BME280;28229;48.856;9.088;2022-12-18T00:36:40;99066.03;;;-11.13;84.96
42601;BME280;28229;48.856;9.088;2022-12-18T00:39:06;99060.41;;;-11.23;84.86
42601;BME280;28229;48.856;9.088;2022-12-18T00:41:32;99073.78;;;-11.18;84.37
42601;BME280;28229;48.856;9.088;2022-12-18T00:44:17;99063.03;;;-11.24;84.93
42601;BME280;28229;48.856;9.088;2022-12-18T00:46:45;99061.25;;;-11.22;84.52
42601;BME280;28229;48.856;9.088;2022-12-18T00:49:11;99058.66;;;-11.21;84.39
42601;BME280;28229;48.856;9.088;2022-12-18T00:51:40;99063.94;;;-11.27;84.46
42601;BME280;28229;48.856;9.088;2022-12-18T00:54:11;99059.75;;;-11.28;84.50
42601;BME280;28229;48.856;9.088;2022-12-18T00:56:38;99059.09;;;-11.33;84.56
42601;BME280;28229;48.856;9.088;2022-12-18T00:59:04;99054.84;;;-11.33;84.72
42601;BME280;28229;48.856;9.088;2022-12-18T01:01:31;99059.19;;;-11.36;85.03
42601;BME280;28229;48.856;9.088;2022-12-18T01:04:00;99059.81;;;-11.30;84.57
42601;BME280;28229;48.856;9.088;2022-12-18T01:06:32;99057.22;;;-11.28;84.03
42601;BME280;28229;48.856;9.088;2022-12-18T01:08:58;99050.75;;;-11.37;84.38
42601;BME280;28229;48.856;9.088;2022-12-18T01:11:24;99055.06;;;-11.39;84.65
42601;BME280;28229;48.856;9.088;2022-12-18T01:13:52;99053.47;;;-11.43;84.11
42601;BME280;28229;48.856;9.088;2022-12-18T01:16:18;99058.47;;;-11.40;83.70
42601;BME280;28229;48.856;9.088;2022-12-18T01:18:44;99054.41;;;-11.45;83.60
42601;BME280;28229;48.856;9.088;2022-12-18T01:21:15;99062.34;;;-11.55;84.32
42601;BME280;28229;48.856;9.088;2022-12-18T01:23:45;99064.63;;;-11.47;84.71
42601;BME280;28229;48.856;9.088;2022-12-18T01:26:15;99073.25;;;-11.51;84.54
42601;BME280;28229;48.856;9.088;2022-12-18T01:28:41;99071.59;;;-11.54;84.49
42601;BME280;28229;48.856;9.088;2022-12-18T01:33:37;99061.66;;;-11.60;84.68
42601;BME280;28229;48.856;9.088;2022-12-18T01:36:03;99058.03;;;-11.53;85.27
42601;BME280;28229;48.856;9.088;2022-12-18T01:38:29;99058.13;;;-11.56;86.03
42601;BME280;28229;48.856;9.088;2022-12-18T01:40:58;99066.75;;;-11.60;86.78
42601;BME280;28229;48.856;9.088;2022-12-18T01:43:47;99065.66;;;-11.53;86.42
42601;BME280;28229;48.856;9.088;2022-12-18T01:46:15;99070.56;;;-11.48;85.70
42601;BME280;28229;48.856;9.088;2022-12-18T01:48:41;99080.72;;;-11.48;86.05
42601;BME280;28229;48.856;9.088;2022-12-18T01:51:09;99070.16;;;-11.61;86.39
42601;BME280;28229;48.856;9.088;2022-12-18T01:53:37;99069.97;;;-11.55;86.74
42601;BME280;28229;48.856;9.088;2022-12-18T01:56:04;99063.13;;;-11.53;86.70
42601;BME280;28229;48.856;9.088;2022-12-18T01:58:52;99064.94;;;-11.56;86.44
42601;BME280;28229;48.856;9.088;2022-12-18T02:01:24;99056.97;;;-11.45;85.45
42601;BME280;28229;48.856;9.088;2022-12-18T02:03:51;99047.88;;;-11.53;85.32
42601;BME280;28229;48.856;9.088;2022-12-18T02:06:33;99051.09;;;-11.47;85.75
42601;BME280;28229;48.856;9.088;2022-12-18T02:09:15;99057.72;;;-11.43;87.58
42601;BME280;28229;48.856;9.088;2022-12-18T02:15:13;99070.56;;;-11.23;89.89
42601;BME280;28229;48.856;9.088;2022-12-18T02:17:57;99070.38;;;-11.17;90.44
42601;BME280;28229;48.856;9.088;2022-12-18T02:20:36;99068.72;;;-11.18;90.28
42601;BME280;28229;48.856;9.088;2022-12-18T02:28:55;99069.34;;;-11.11;89.96
42601;BME280;28229;48.856;9.088;2022-12-18T02:31:28;99071.16;;;-11.15;90.30
42601;BME280;28229;48.856;9.088;2022-12-18T02:34:00;99073.38;;;-11.05;90.21
42601;BME280;28229;48.856;9.088;2022-12-18T02:36:34;99074.13;;;-11.03;90.54
42601;BME280;28229;48.856;9.088;2022-12-18T02:39:03;99074.13;;;-11.03;90.80
42601;BME280;28229;48.856;9.088;2022-12-18T02:41:31;99076.59;;;-11.00;91.81
42601;BME280;28229;48.856;9.088;2022-12-18T02:43:59;99077.69;;;-10.84;92.68
42601;BME280;28229;48.856;9.088;2022-12-18T02:46:31;99076.66;;;-10.78;93.26
42601;BME280;28229;48.856;9.088;2022-12-18T02:49:08;99072.22;;;-10.73;92.82
42601;BME280;28229;48.856;9.088;2022-12-18T02:51:51;99083.25;;;-10.73;92.90
42601;BME280;28229;48.856;9.088;2022-12-18T03:00:11;99084.34;;;-10.56;92.12
42601;BME280;28229;48.856;9.088;2022-12-18T03:02:43;99080.25;;;-10.60;92.33
42601;BME280;28229;48.856;9.088;2022-12-18T03:05:18;99067.44;;;-10.59;92.67
42601;BME280;28229;48.856;9.088;2022-12-18T03:07:57;99076.59;;;-10.53;92.53
42601;BME280;28229;48.856;9.088;2022-12-18T03:10:28;99083.31;;;-10.52;92.44
42601;BME280;28229;48.856;9.088;2022-12-18T03:13:14;99086.88;;;-10.56;93.66
42601;BME280;28229;48.856;9.088;2022-12-18T03:15:46;99083.59;;;-10.36;94.37
42601;BME280;28229;48.856;9.088;2022-12-18T03:18:19;99087.75;;;-10.33;94.64
42601;BME280;28229;48.856;9.088;2022-12-18T03:20:47;99091.59;;;-10.25;94.39
42601;BME280;28229;48.856;9.088;2022-12-18T03:23:22;99093.44;;;-10.28;94.43
42601;BME280;28229;48.856;9.088;2022-12-18T03:25:53;99082.38;;;-10.27;94.31
42601;BME280;28229;48.856;9.088;2022-12-18T03:28:22;99082.13;;;-10.21;94.06
42601;BME280;28229;48.856;9.088;2022-12-18T03:30:57;99095.81;;;-10.24;94.37
42601;BME280;28229;48.856;9.088;2022-12-18T03:35:54;99091.56;;;-10.23;95.12
42601;BME280;28229;48.856;9.088;2022-12-18T03:38:20;99095.41;;;-10.13;95.08
42601;BME280;28229;48.856;9.088;2022-12-18T03:46:33;99086.25;;;-10.17;96.02
42601;BME280;28229;48.856;9.088;2022-12-18T03:49:33;99088.69;;;-10.14;95.88
42601;BME280;28229;48.856;9.088;2022-12-18T03:54:42;99100.19;;;-10.27;96.70
42601;BME280;28229;48.856;9.088;2022-12-18T03:57:19;99101.34;;;-10.35;97.16
42601;BME280;28229;48.856;9.088;2022-12-18T03:59:52;99091.94;;;-10.32;97.33
42601;BME280;28229;48.856;9.088;2022-12-18T04:02:23;99082.66;;;-10.33;96.99
42601;BME280;28229;48.856;9.088;2022-12-18T04:04:52;99096.25;;;-10.35;96.65
42601;BME280;28229;48.856;9.088;2022-12-18T04:07:20;99098.75;;;-10.33;96.98
42601;BME280;28229;48.856;9.088;2022-12-18T04:09:48;99092.84;;;-10.33;96.79
42601;BME280;28229;48.856;9.088;2022-12-18T04:12:17;99075.34;;;-10.43;96.88
42601;BME280;28229;48.856;9.088;2022-12-18T04:14:45;99091.41;;;-10.41;96.93
42601;BME280;28229;48.856;9.088;2022-12-18T04:17:11;99076.72;;;-10.34;97.06
42601;BME280;28229;48.856;9.088;2022-12-18T04:19:37;99084.94;;;-10.27;96.79
42601;BME280;28229;48.856;9.088;2022-12-18T04:22:03;99097.94;;;-10.33;96.57
42601;BME280;28229;48.856;9.088;2022-12-18T04:24:34;99087.53;;;-10.29;96.46
42601;BME280;28229;48.856;9.088;2022-12-18T04:27:07;99094.69;;;-10.17;95.89
42601;BME280;28229;48.856;9.088;2022-12-18T04:29:39;99099.06;;;-10.20;95.89
42601;BME280;28229;48.856;9.088;2022-12-18T04:32:05;99102.75;;;-10.27;96.04
42601;BME280;28229;48.856;9.088;2022-12-18T04:34:32;99114.44;;;-10.23;96.22
42601;BME280;28229;48.856;9.088;2022-12-18T04:36:58;99098.84;;;-10.14;96.03
42601;BME280;28229;48.856;9.088;2022-12-18T04:39:25;99095.97;;;-10.28;96.16
42601;BME280;28229;48.856;9.088;2022-12-18T04:41:54;99082.38;;;-10.27;95.84
42601;BME280;28229;48.856;9.088;2022-12-18T04:44:19;99075.91;;;-10.35;96.06
42601;BME280;28229;48.856;9.088;2022-12-18T04:46:45;99078.25;;;-10.30;95.83
42601;BME280;28229;48.856;9.088;2022-12-18T04:49:11;99081.50;;;-10.26;95.51
42601;BME280;28229;48.856;9.088;2022-12-18T04:51:38;99083.91;;;-10.23;95.72
42601;BME280;28229;48.856;9.088;2022-12-18T04:54:04;99085.34;;;-10.16;95.56
42601;BME280;28229;48.856;9.088;2022-12-18T04:56:31;99074.44;;;-10.20;94.84
42601;BME280;28229;48.856;9.088;2022-12-18T04:58:57;99078.59;;;-10.17;94.73
42601;BME280;28229;48.856;9.088;2022-12-18T05:01:23;99083.59;;;-10.14;94.23
42601;BME280;28229;48.856;9.088;2022-12-18T05:03:51;99075.16;;;-10.16;94.23
42601;BME280;28229;48.856;9.088;2022-12-18T05:06:17;99074.44;;;-10.20;94.34
42601;BME280;28229;48.856;9.088;2022-12-18T05:08:43;99077.84;;;-10.19;94.47
42601;BME280;28229;48.856;9.088;2022-12-18T05:11:11;99070.38;;;-10.24;94.73
42601;BME280;28229;48.856;9.088;2022-12-18T05:13:37;99075.41;;;-10.22;94.89
42601;BME280;28229;48.856;9.088;2022-12-18T05:16:04;99076.16;;;-10.20;94.70
42601;BME280;28229;48.856;9.088;2022-12-18T05:18:30;99080.88;;;-10.31;95.59
42601;BME280;28229;48.856;9.088;2022-12-18T05:20:56;99086.41;;;-10.22;95.25
42601;BME280;28229;48.856;9.088;2022-12-18T05:23:23;99094.84;;;-10.21;95.03
42601;BME280;28229;48.856;9.088;2022-12-18T05:25:58;99094.09;;;-10.23;94.78
42601;BME280;28229;48.856;9.088;2022-12-18T05:28:27;99102.75;;;-10.27;95.24
42601;BME280;28229;48.856;9.088;2022-12-18T05:30:57;99107.81;;;-10.27;95.15
42601;BME280;28229;48.856;9.088;2022-12-18T05:33:25;99113.53;;;-10.21;94.89
42601;BME280;28229;48.856;9.088;2022-12-18T05:35:57;99117.13;;;-10.26;94.82
42601;BME280;28229;48.856;9.088;2022-12-18T05:38:25;99111.13;;;-10.25;94.89
42601;BME280;28229;48.856;9.088;2022-12-18T05:40:51;99112.91;;;-10.27;95.11
42601;BME280;28229;48.856;9.088;2022-12-18T05:43:18;99117.91;;;-10.24;95.21
42601;BME280;28229;48.856;9.088;2022-12-18T05:45:44;99113.69;;;-10.25;95.31
42601;BME280;28229;48.856;9.088;2022-12-18T05:48:14;99103.28;;;-10.19;95.07
42601;BME280;28229;48.856;9.088;2022-12-18T05:50:41;99102.34;;;-10.17;94.67
42601;BME280;28229;48.856;9.088;2022-12-18T05:53:09;99097.31;;;-10.18;94.31
42601;BME280;28229;48.856;9.088;2022-12-18T05:55:35;99093.06;;;-10.18;94.05
42601;BME280;28229;48.856;9.088;2022-12-18T05:58:02;99097.31;;;-10.18;94.15
42601;BME280;28229;48.856;9.088;2022-12-18T06:00:29;99107.38;;;-10.15;94.00
42601;BME280;28229;48.856;9.088;2022-12-18T06:02:55;99104.06;;;-10.17;94.20
42601;BME280;28229;48.856;9.088;2022-12-18T06:05:21;99111.03;;;-10.22;93.98
42601;BME280;28229;48.856;9.088;2022-12-18T06:07:47;99105.94;;;-10.22;94.23
42601;BME280;28229;48.856;9.088;2022-12-18T06:10:12;99114.94;;;-10.36;94.07
42601;BME280;28229;48.856;9.088;2022-12-18T06:12:38;99117.44;;;-10.34;94.86
42601;BME280;28229;48.856;9.088;2022-12-18T06:15:04;99118.63;;;-10.21;96.10
42601;BME280;28229;48.856;9.088;2022-12-18T06:17:31;99109.97;;;-10.17;95.35
42601;BME280;28229;48.856;9.088;2022-12-18T06:19:57;99107.94;;;-10.30;94.24
42601;BME280;28229;48.856;9.088;2022-12-18T06:22:23;99114.06;;;-10.35;94.17
42601;BME280;28229;48.856;9.088;2022-12-18T06:24:49;99107.59;;;-10.43;94.14
42601;BME280;28229;48.856;9.088;2022-12-18T06:27:16;99106.78;;;-10.44;94.37
42601;BME280;28229;48.856;9.088;2022-12-18T06:29:41;99118.72;;;-10.46;94.34
42601;BME280;28229;48.856;9.088;2022-12-18T06:32:07;99119.66;;;-10.48;94.12
42601;BME280;28229;48.856;9.088;2022-12-18T06:34:37;99122.13;;;-10.47;93.91
42601;BME280;28229;48.856;9.088;2022-12-18T06:37:03;99131.44;;;-10.46;94.03
42601;BME280;28229;48.856;9.088;2022-12-18T06:39:28;99146.03;;;-10.51;94.34
42601;BME280;28229;48.856;9.088;2022-12-18T06:41:54;99141.78;;;-10.50;94.46
42601;BME280;28229;48.856;9.088;2022-12-18T06:44:20;99142.38;;;-10.44;93.97
42601;BME280;28229;48.856;9.088;2022-12-18T06:46:46;99128.78;;;-10.43;93.84
42601;BME280;28229;48.856;9.088;2022-12-18T06:49:11;99127.84;;;-10.40;93.42
42601;BME280;28229;48.856;9.088;2022-12-18T06:51:38;99132.13;;;-10.41;93.53
42601;BME280;28229;48.856;9.088;2022-12-18T06:54:03;99124.28;;;-10.36;93.71
42601;BME280;28229;48.856;9.088;2022-12-18T06:56:29;99129.22;;;-10.31;93.27
42601;BME280;28229;48.856;9.088;2022-12-18T06:58:55;99124.88;;;-10.29;92.96
42601;BME280;28229;48.856;9.088;2022-12-18T07:01:21;99133.28;;;-10.27;92.90
42601;BME280;28229;48.856;9.088;2022-12-18T07:03:52;99138.34;;;-10.27;92.38
42601;BME280;28229;48.856;9.088;2022-12-18T07:06:21;99143.56;;;-10.30;92.63
42601;BME280;28229;48.856;9.088;2022-12-18T07:08:48;99143.81;;;-10.37;92.62
42601;BME280;28229;48.856;9.088;2022-12-18T07:11:14;99147.28;;;-10.39;93.18
42601;BME280;28229;48.856;9.088;2022-12-18T07:13:40;99158.13;;;-10.34;93.01
42601;BME280;28229;48.856;9.088;2022-12-18T07:16:11;99149.31;;;-10.25;92.60
42601;BME280;28229;48.856;9.088;2022-12-18T07:18:37;99156.03;;;-10.23;92.50
42601;BME280;28229;48.856;9.088;2022-12-18T07:21:11;99150.75;;;-10.18;92.33
42601;BME280;28229;48.856;9.088;2022-12-18T07:23:38;99163.56;;;-10.21;91.99
42601;BME280;28229;48.856;9.088;2022-12-18T07:26:06;99156.84;;;-10.22;91.99
42601;BME280;28229;48.856;9.088;2022-12-18T07:28:33;99166.72;;;-10.37;92.55
42601;BME280;28229;48.856;9.088;2022-12-18T07:31:07;99168.38;;;-10.36;92.99
42601;BME280;28229;48.856;9.088;2022-12-18T07:33:34;99169.00;;;-10.30;92.67
42601;BME280;28229;48.856;9.088;2022-12-18T07:36:04;99178.25;;;-10.28;92.39
42601;BME280;28229;48.856;9.088;2022-12-18T07:38:32;99175.53;;;-10.23;92.54
42601;BME280;28229;48.856;9.088;2022-12-18T07:41:12;99169.50;;;-10.21;92.43
42601;BME280;28229;48.856;9.088;2022-12-18T07:43:39;99171.66;;;-10.10;92.41
42601;BME280;28229;48.856;9.088;2022-12-18T07:46:06;99167.28;;;-10.06;92.00
42601;BME280;28229;48.856;9.088;2022-12-18T07:48:32;99173.19;;;-10.06;91.91
42601;BME280;28229;48.856;9.088;2022-12-18T07:51:02;99172.38;;;-10.06;92.41
42601;BME280;28229;48.856;9.088;2022-12-18T07:53:30;99166.22;;;-10.01;92.63
42601;BME280;28229;48.856;9.088;2022-12-18T07:55:57;99166.81;;;-9.94;92.93
42601;BME280;28229;48.856;9.088;2022-12-18T07:58:23;99173.41;;;-9.88;92.87
42601;BME280;28229;48.856;9.088;2022-12-18T08:00:48;99174.81;;;-9.81;93.36
42601;BME280;28229;48.856;9.088;2022-12-18T08:03:14;99170.59;;;-9.82;93.08
42601;BME280;28229;48.856;9.088;2022-12-18T08:05:40;99171.03;;;-9.71;93.00
42601;BME280;28229;48.856;9.088;2022-12-18T08:08:06;99169.00;;;-9.63;92.78
42601;BME280;28229;48.856;9.088;2022-12-18T08:10:32;99165.41;;;-9.57;92.92
42601;BME280;28229;48.856;9.088;2022-12-18T08:12:57;99173.56;;;-9.49;93.01
42601;BME280;28229;48.856;9.088;2022-12-18T08:15:23;99175.03;;;-9.43;93.06
42601;BME280;28229;48.856;9.088;2022-12-18T08:17:49;99174.59;;;-9.32;93.02
42601;BME280;28229;48.856;9.088;2022-12-18T08:20:15;99177.69;;;-9.24;92.93
42601;BME280;28229;48.856;9.088;2022-12-18T08:22:41;99175.72;;;-9.17;92.64
42601;BME280;28229;48.856;9.088;2022-12-18T08:25:08;99172.91;;;-9.11;92.42
42601;BME280;28229;48.856;9.088;2022-12-18T08:27:33;99180.50;;;-9.10;92.22
42601;BME280;28229;48.856;9.088;2022-12-18T08:29:59;99184.53;;;-9.04;92.20
42601;BME280;28229;48.856;9.088;2022-12-18T08:32:26;99180.34;;;-9.05;91.96
42601;BME280;28229;48.856;9.088;2022-12-18T08:34:52;99179.56;;;-8.87;93.50
42601;BME280;28229;48.856;9.088;2022-12-18T08:37:18;99176.13;;;-8.86;93.39
42601;BME280;28229;48.856;9.088;2022-12-18T08:39:44;99180.56;;;-8.70;94.85
42601;BME280;28229;48.856;9.088;2022-12-18T08:42:10;99176.09;;;-8.65;94.53
42601;BME280;28229;48.856;9.088;2022-12-18T08:44:54;99178.88;;;-8.51;94.91
42601;BME280;28229;48.856;9.088;2022-12-18T08:47:20;99184.41;;;-8.41;94.75
42601;BME280;28229;48.856;9.088;2022-12-18T08:49:46;99183.44;;;-8.38;94.45
42601;BME280;28229;48.856;9.088;2022-12-18T08:52:15;99178.06;;;-8.32;94.07
42601;BME280;28229;48.856;9.088;2022-12-18T08:54:41;99169.94;;;-8.21;94.48
42601;BME280;28229;48.856;9.088;2022-12-18T08:57:06;99171.16;;;-8.11;93.72
42601;BME280;28229;48.856;9.088;2022-12-18T08:59:32;99165.78;;;-8.05;93.06
42601;BME280;28229;48.856;9.088;2022-12-18T09:01:58;99156.88;;;-7.96;93.08
42601;BME280;28229;48.856;9.088;2022-12-18T09:04:24;99148.66;;;-7.84;93.27
42601;BME280;28229;48.856;9.088;2022-12-18T09:06:49;99148.97;;;-7.73;93.12
42601;BME280;28229;48.856;9.088;2022-12-18T09:09:15;99154.69;;;-7.68;92.15
42601;BME280;28229;48.856;9.088;2022-12-18T09:11:41;99156.69;;;-7.55;91.59
42601;BME280;28229;48.856;9.088;2022-12-18T09:14:09;99157.13;;;-7.47;91.34
42601;BME280;28229;48.856;9.088;2022-12-18T09:16:35;99150.66;;;-7.37;91.45
42601;BME280;28229;48.856;9.088;2022-12-18T09:19:02;99150.97;;;-7.25;90.41
42601;BME280;28229;48.856;9.088;2022-12-18T09:21:31;99147.06;;;-7.15;90.19
42601;BME280;28229;48.856;9.088;2022-12-18T09:23:57;99142.47;;;-7.09;89.52
42601;BME280;28229;48.856;9.088;2022-12-18T09:26:25;99139.06;;;-6.92;89.82
42601;BME280;28229;48.856;9.088;2022-12-18T09:28:51;99137.84;;;-6.67;90.26
42601;BME280;28229;48.856;9.088;2022-12-18T09:31:18;99137.56;;;-6.45;90.08
42601;BME280;28229;48.856;9.088;2022-12-18T09:33:46;99133.22;;;-6.27;88.35
42601;BME280;28229;48.856;9.088;2022-12-18T09:36:14;99144.44;;;-6.14;86.97
42601;BME280;28229;48.856;9.088;2022-12-18T09:38:41;99137.84;;;-6.18;85.64
42601;BME280;28229;48.856;9.088;2022-12-18T09:43:52;99133.97;;;-6.09;86.05
42601;BME280;28229;48.856;9.088;2022-12-18T09:46:33;99135.75;;;-5.95;84.39
42601;BME280;28229;48.856;9.088;2022-12-18T09:49:03;99136.06;;;-5.69;84.35
42601;BME280;28229;48.856;9.088;2022-12-18T09:51:43;99120.31;;;-5.63;82.09
42601;BME280;28229;48.856;9.088;2022-12-18T09:54:14;99120.69;;;-5.69;81.76
42601;BME280;28229;48.856;9.088;2022-12-18T09:56:43;99128.78;;;-5.61;82.57
42601;BME280;28229;48.856;9.088;2022-12-18T10:01:47;99133.66;;;-5.26;82.33
42601;BME280;28229;48.856;9.088;2022-12-18T10:04:12;99143.59;;;-5.06;80.48
42601;BME280;28229;48.856;9.088;2022-12-18T10:06:44;99136.50;;;-4.86;80.19
42601;BME280;28229;48.856;9.088;2022-12-18T10:09:31;99141.19;;;-4.64;78.14
42601;BME280;28229;48.856;9.088;2022-12-18T10:12:12;99136.50;;;-4.29;77.56
42601;BME280;28229;48.856;9.088;2022-12-18T10:15:01;99144.69;;;-3.95;77.21
42601;BME280;28229;48.856;9.088;2022-12-18T10:20:02;99137.72;;;-3.38;75.72
42601;BME280;28229;48.856;9.088;2022-12-18T10:22:48;99141.28;;;-3.01;75.22
42601;BME280;28229;48.856;9.088;2022-12-18T10:28:07;99154.06;;;-2.22;71.74
42601;BME280;28229;48.856;9.088;2022-12-18T10:30:35;99148.91;;;-1.85;70.11
42601;BME280;28229;48.856;9.088;2022-12-18T10:33:02;99136.31;;;-1.53;69.43
42601;BME280;28229;48.856;9.088;2022-12-18T10:35:41;99133.47;;;-1.26;67.22
42601;BME280;28229;48.856;9.088;2022-12-18T10:41:00;99136.84;;;-1.01;65.86
42601;BME280;28229;48.856;9.088;2022-12-18T10:43:37;99134.25;;;-0.90;65.76
42601;BME280;28229;48.856;9.088;2022-12-18T10:48:35;99135.72;;;-0.74;73.42
42601;BME280;28229;48.856;9.088;2022-12-18T10:51:06;99132.91;;;-0.60;68.83
42601;BME280;28229;48.856;9.088;2022-12-18T10:53:35;99137.38;;;-0.40;69.46
42601;BME280;28229;48.856;9.088;2022-12-18T10:56:03;99129.84;;;-0.54;63.84
42601;BME280;28229;48.856;9.088;2022-12-18T10:58:32;99130.31;;;-0.26;66.54
42601;BME280;28229;48.856;9.088;2022-12-18T11:01:08;99132.88;;;-0.04;62.82
42601;BME280;28229;48.856;9.088;2022-12-18T11:03:41;99129.56;;;0.17;62.54
42601;BME280;28229;48.856;9.088;2022-12-18T11:06:19;99132.03;;;0.18;60.47
42601;BME280;28229;48.856;9.088;2022-12-18T11:09:03;99123.13;;;0.44;61.98
42601;BME280;28229;48.856;9.088;2022-12-18T11:11:31;99117.56;;;0.81;60.99
42601;BME280;28229;48.856;9.088;2022-12-18T11:14:06;99120.72;;;1.05;58.65
42601;BME280;28229;48.856;9.088;2022-12-18T11:16:46;99107.69;;;1.17;59.02
42601;BME280;28229;48.856;9.088;2022-12-18T11:19:23;99105.47;;;0.91;58.51
42601;BME280;28229;48.856;9.088;2022-12-18T11:21:51;99101.81;;;0.93;58.59
42601;BME280;28229;48.856;9.088;2022-12-18T11:24:21;99103.53;;;1.04;58.76
42601;BME280;28229;48.856;9.088;2022-12-18T11:26:49;99104.56;;;1.23;57.90
42601;BME280;28229;48.856;9.088;2022-12-18T11:29:18;99095.75;;;1.35;57.35
42601;BME280;28229;48.856;9.088;2022-12-18T11:31:44;99105.88;;;1.38;56.90
42601;BME280;28229;48.856;9.088;2022-12-18T11:34:13;99108.56;;;1.27;57.15
42601;BME280;28229;48.856;9.088;2022-12-18T11:36:46;99098.78;;;1.40;57.06
42601;BME280;28229;48.856;9.088;2022-12-18T11:39:40;99094.56;;;1.39;56.75
42601;BME280;28229;48.856;9.088;2022-12-18T11:45:08;99096.25;;;1.50;55.48
42601;BME280;28229;48.856;9.088;2022-12-18T11:50:27;99086.78;;;1.39;57.02
42601;BME280;28229;48.856;9.088;2022-12-18T11:52:55;99092.13;;;1.47;56.31
42601;BME280;28229;48.856;9.088;2022-12-18T11:55:56;99087.91;;;1.46;55.73
42601;BME280;28229;48.856;9.088;2022-12-18T12:03:51;99074.56;;;0.99;56.33
42601;BME280;28229;48.856;9.088;2022-12-18T12:30:20;99067.38;;;0.07;58.72
42601;BME280;28229;48.856;9.088;2022-12-18T12:35:44;99064.91;;;0.06;59.47
42601;BME280;28229;48.856;9.088;2022-12-18T12:38:31;99059.97;;;0.03;59.56
42601;BME280;28229;48.856;9.088;2022-12-18T12:41:04;99061.88;;;-0.11;59.98
42601;BME280;28229;48.856;9.088;2022-12-18T12:43:44;99064.44;;;-0.11;60.72
42601;BME280;28229;48.856;9.088;2022-12-18T12:46:15;99063.88;;;-0.03;60.99
42601;BME280;28229;48.856;9.088;2022-12-18T12:48:45;99074.09;;;-0.02;61.00
42601;BME280;28229;48.856;9.088;2022-12-18T12:51:21;99076.44;;;-0.10;60.94
42601;BME280;28229;48.856;9.088;2022-12-18T12:53:48;99072.94;;;-0.09;60.85
42601;BME280;28229;48.856;9.088;2022-12-18T12:56:17;99083.28;;;-0.09;61.12
42601;BME280;28229;48.856;9.088;2022-12-18T13:01:41;99075.94;;;-0.04;62.24
42601;BME280;28229;48.856;9.088;2022-12-18T13:07:10;99078.81;;;-0.07;61.46
42601;BME280;28229;48.856;9.088;2022-12-18T13:12:56;99088.13;;;-0.38;62.52
42601;BME280;28229;48.856;9.088;2022-12-18T13:15:42;99090.13;;;-0.30;63.03
42601;BME280;28229;48.856;9.088;2022-12-18T13:25:53;99066.84;;;-0.64;63.75
42601;BME280;28229;48.856;9.088;2022-12-18T13:31:06;99060.31;;;-0.91;64.71
42601;BME280;28229;48.856;9.088;2022-12-18T13:36:26;99065.63;;;-1.28;66.04
42601;BME280;28229;48.856;9.088;2022-12-18T13:41:40;99060.50;;;-1.17;66.58
42601;BME280;28229;48.856;9.088;2022-12-18T13:46:51;99050.09;;;-0.92;66.67
42601;BME280;28229;48.856;9.088;2022-12-18T13:49:28;99047.72;;;-0.96;66.22
42601;BME280;28229;48.856;9.088;2022-12-18T13:51:57;99053.47;;;-0.92;65.93
42601;BME280;28229;48.856;9.088;2022-12-18T13:54:41;99047.38;;;-0.91;66.46
42601;BME280;28229;48.856;9.088;2022-12-18T13:59:53;99051.72;;;-1.03;66.53
42601;BME280;28229;48.856;9.088;2022-12-18T14:02:24;99047.13;;;-0.99;66.72
42601;BME280;28229;48.856;9.088;2022-12-18T14:04:51;99056.72;;;-1.12;67.01
42601;BME280;28229;48.856;9.088;2022-12-18T14:07:19;99052.84;;;-1.18;66.79
42601;BME280;28229;48.856;9.088;2022-12-18T14:09:49;99055.53;;;-1.31;67.11
42601;BME280;28229;48.856;9.088;2022-12-18T14:12:19;99057.50;;;-1.35;67.76
42601;BME280;28229;48.856;9.088;2022-12-18T14:17:45;99046.81;;;-1.41;68.58
42601;BME280;28229;48.856;9.088;2022-12-18T14:20:15;99053.94;;;-1.56;67.87
42601;BME280;28229;48.856;9.088;2022-12-18T14:22:46;99061.78;;;-1.58;69.01
42601;BME280;28229;48.856;9.088;2022-12-18T14:27:47;99060.28;;;-1.84;69.29
42601;BME280;28229;48.856;9.088;2022-12-18T14:33:09;99061.94;;;-1.83;70.44
42601;BME280;28229;48.856;9.088;2022-12-18T14:35:41;99055.94;;;-1.84;71.97
42601;BME280;28229;48.856;9.088;2022-12-18T14:38:22;99056.06;;;-1.85;72.96
42601;BME280;28229;48.856;9.088;2022-12-18T14:40:53;99057.09;;;-1.88;71.90
42601;BME280;28229;48.856;9.088;2022-12-18T14:43:19;99065.66;;;-1.87;72.02
42601;BME280;28229;48.856;9.088;2022-12-18T14:45:46;99069.97;;;-1.88;72.32
42601;BME280;28229;48.856;9.088;2022-12-18T14:48:21;99060.72;;;-1.90;72.48
42601;BME280;28229;48.856;9.088;2022-12-18T14:51:01;99056.81;;;-1.96;73.11
42601;BME280;28229;48.856;9.088;2022-12-18T14:54:05;99064.88;;;-2.01;73.15
42601;BME280;28229;48.856;9.088;2022-12-18T14:56:32;99058.06;;;-2.02;73.29
42601;BME280;28229;48.856;9.088;2022-12-18T14:59:00;99063.47;;;-2.05;73.98
42601;BME280;28229;48.856;9.088;2022-12-18T15:01:35;99059.78;;;-2.14;74.53
42601;BME280;28229;48.856;9.088;2022-12-18T15:04:03;99059.19;;;-2.17;74.28
42601;BME280;28229;48.856;9.088;2022-12-18T15:06:32;99057.63;;;-2.20;74.42
42601;BME280;28229;48.856;9.088;2022-12-18T15:09:00;99053.00;;;-2.27;74.95
42601;BME280;28229;48.856;9.088;2022-12-18T15:14:43;99060.28;;;-2.45;75.82